Terminal Aerodrome Forecast
Issued by NWS

Current Version | Previous Version | Text Only | Print | Product List | Glossary On
Versions: 1 2 3 4 5 6 7 8 9 10 11 12 13 14 15 16 17 18 19 20 21 22 23 24 25 26 27 28 29 30 31 32 33 34 35 36
000
FTAK31 PANC 041733
TAFASN
TAF
PASN 041733Z 0418/0518 02013KT P6SM BKN035
      TEMPO 0418/0422 BKN025
     FM042200 01015KT P6SM SCT015 OVC025
     FM050200 36016KT P6SM BKN015
     FM050800 34017G23KT 6SM -SHRA BR OVC012=

USA.gov is the U.S. government's official web portal to all federal, state and local government web resources and services.